地図

経路データ

SID SEASON NUMBER BASIN SUBBASIN NAME ISO_TIME NATURE LAT LON WMO_WIND WMO_PRES WMO_AGENCY TRACK_TYPE DIST2LAND LANDFALL IFLAG USA_AGENCY USA_ATCF_ID USA_LAT USA_LON USA_RECORD USA_STATUS USA_WIND USA_PRES USA_SSHS USA_R34_NE USA_R34_SE USA_R34_SW USA_R34_NW USA_R50_NE USA_R50_SE USA_R50_SW USA_R50_NW USA_R64_NE USA_R64_SE USA_R64_SW USA_R64_NW USA_POCI USA_ROCI USA_RMW USA_EYE TOKYO_LAT TOKYO_LON TOKYO_GRADE TOKYO_WIND TOKYO_PRES TOKYO_R50_DIR TOKYO_R50_LONG TOKYO_R50_SHORT TOKYO_R30_DIR TOKYO_R30_LONG TOKYO_R30_SHORT TOKYO_LAND CMA_LAT CMA_LON CMA_CAT CMA_WIND CMA_PRES HKO_LAT HKO_LON HKO_CAT HKO_WIND HKO_PRES NEWDELHI_LAT NEWDELHI_LON NEWDELHI_GRADE NEWDELHI_WIND NEWDELHI_PRES NEWDELHI_CI NEWDELHI_DP NEWDELHI_POCI REUNION_LAT REUNION_LON REUNION_TYPE REUNION_WIND REUNION_PRES REUNION_TNUM REUNION_CI REUNION_RMW REUNION_R34_NE REUNION_R34_SE REUNION_R34_SW REUNION_R34_NW REUNION_R50_NE REUNION_R50_SE REUNION_R50_SW REUNION_R50_NW REUNION_R64_NE REUNION_R64_SE REUNION_R64_SW REUNION_R64_NW BOM_LAT BOM_LON BOM_TYPE BOM_WIND BOM_PRES BOM_TNUM BOM_CI BOM_RMW BOM_R34_NE BOM_R34_SE BOM_R34_SW BOM_R34_NW BOM_R50_NE BOM_R50_SE BOM_R50_SW BOM_R50_NW BOM_R64_NE BOM_R64_SE BOM_R64_SW BOM_R64_NW BOM_ROCI BOM_POCI BOM_EYE BOM_POS_METHOD BOM_PRES_METHOD NADI_LAT NADI_LON NADI_CAT NADI_WIND NADI_PRES WELLINGTON_LAT WELLINGTON_LON WELLINGTON_WIND WELLINGTON_PRES DS824_LAT DS824_LON DS824_STAGE DS824_WIND DS824_PRES TD9636_LAT TD9636_LON TD9636_STAGE TD9636_WIND TD9636_PRES TD9635_LAT TD9635_LON TD9635_WIND TD9635_PRES TD9635_ROCI NEUMANN_LAT NEUMANN_LON NEUMANN_CLASS NEUMANN_WIND NEUMANN_PRES MLC_LAT MLC_LON MLC_CLASS MLC_WIND MLC_PRES USA_GUST BOM_GUST BOM_GUST_PER REUNION_GUST REUNION_GUST_PER USA_SEAHGT USA_SEARAD_NE USA_SEARAD_SE USA_SEARAD_SW USA_SEARAD_NW STORM_SPEED STORM_DIR
2022032S15153 2022 6 SP EA NOT_NAMED 2022-01-31 18:00:00 NR -15.0000 152.500 PROVISIONAL 529 515 O_____________ tcvitals SP092022 -15.0000 152.500 35 1002 0 50 55 1006 110 45 2 326
2022032S15153 2022 6 SP EA NOT_NAMED 2022-01-31 21:00:00 NR -14.9074 152.430 PROVISIONAL 515 515 P_____________ SP092022 -14.9074 152.430 35 1001 0 52 60 1005 118 37 1 0
2022032S15153 2022 6 SP EA NOT_NAMED 2022-02-01 00:00:00 NR -14.9000 152.500 PROVISIONAL 519 519 O_____________ tcvitals SP092022 -14.9000 152.500 35 1000 0 55 65 1005 126 30 4 109
2022032S15153 2022 6 SP EA NOT_NAMED 2022-02-01 03:00:00 NR -15.0276 152.797 PROVISIONAL 542 542 P_____________ SP092022 -15.0276 152.797 35 1000 0 55 65 1005 126 30 7 114
2022032S15153 2022 6 SP EA NOT_NAMED 2022-02-01 06:00:00 NR -15.2000 153.200 PROVISIONAL 582 582 O_____________ tcvitals SP092022 -15.2000 153.200 35 1000 0 55 65 1005 126 30 8 111
2022032S15153 2022 6 SP EA NOT_NAMED 2022-02-01 09:00:00 NR -15.3301 153.610 PROVISIONAL 613 613 P_____________ SP092022 -15.3301 153.610 35 1000 0 50 52 1005 133 32 7 106
2022032S15153 2022 6 SP EA NOT_NAMED 2022-02-01 12:00:00 NR -15.4000 153.900 PROVISIONAL 639 639 O_____________ tcvitals SP092022 -15.4000 153.900 35 1000 0 45 40 1005 140 35 3 102
2022032S15153 2022 6 SP EA NOT_NAMED 2022-02-01 15:00:00 NR -15.3874 153.880 PROVISIONAL 639 624 P_____________ SP092022 -15.3874 153.880 35 999 0 47 37 1004 142 35 1 317
2022032S15153 2022 6 SP EA NOT_NAMED 2022-02-01 18:00:00 NR -15.3000 153.800 PROVISIONAL 624 615 O_____________ tcvitals SP092022 -15.3000 153.800 35 998 0 50 35 1003 145 35 2 0
2022032S15153 2022 6 SP EA NOT_NAMED 2022-02-01 21:00:00 NR -15.1424 153.883 PROVISIONAL 611 608 P_____________ SP092022 -15.1424 153.883 32 998 -1 1003 137 35 4 44
2022032S15153 2022 6 SP EA NOT_NAMED 2022-02-02 00:00:00 NR -15.0000 154.100 PROVISIONAL 615 615 O_____________ tcvitals SP092022 -15.0000 154.100 29 999 -1 1004 130 35 6 69
2022032S15153 2022 6 SP EA NOT_NAMED 2022-02-02 03:00:00 NR -14.9326 154.463 PROVISIONAL 633 633 P_____________ SP092022 -14.9326 154.463 29 998 -1 1003 120 35 8 90
2022032S15153 2022 6 SP EA NOT_NAMED 2022-02-02 06:00:00 NR -15.0000 154.900 PROVISIONAL 671 671 O_____________ tcvitals SP092022 -15.0000 154.900 29 997 -1 1002 110 35 8 114
2022032S15153 2022 6 SP EA NOT_NAMED 2022-02-02 09:00:00 NR -15.2621 155.248 PROVISIONAL 717 717 P_____________ SP092022 -15.2621 155.248 29 997 -1 1002 110 35 10 128
2022032S15153 2022 6 SP EA NOT_NAMED 2022-02-02 12:00:00 NR -15.6000 155.700 PROVISIONAL 778 766 O_____________ tcvitals SP092022 -15.6000 155.700 29 998 -1 1002 110 35 13 117
2022032S15153 2022 6 SP EA NOT_NAMED 2022-02-02 15:00:00 NR -15.8505 156.435 PROVISIONAL 776 757 P_____________ SP092022 -15.8505 156.435 24 999 -1 1002 110 35 15 109
2022032S15153 2022 6 SP EA NOT_NAMED 2022-02-02 18:00:00 NR -16.1000 157.200 PROVISIONAL 759 755 O_____________ tcvitals SP092022 -16.1000 157.200 19 1000 -1 1002 110 35 14 114
2022032S15153 2022 6 SP EA NOT_NAMED 2022-02-02 21:00:00 NR -16.4147 157.760 PROVISIONAL 761 732 P_____________ SP092022 -16.4147 157.760 19 1000 -1 1002 105 35 11 122
2022032S15153 2022 6 SP EA NOT_NAMED 2022-02-03 00:00:00 NR -16.7000 158.200 PROVISIONAL 732 699 O_____________ tcvitals SP092022 -16.7000 158.200 19 1000 -1 1002 100 35 9 120
2022032S15153 2022 6 SP EA NOT_NAMED 2022-02-03 03:00:00 NR -16.8496 158.543 PROVISIONAL 699 651 P_____________ SP092022 -16.8496 158.543 19 1000 -1 1002 95 35 7 114
2022032S15153 2022 6 SP EA NOT_NAMED 2022-02-03 06:00:00 NR -17.0000 158.900 PROVISIONAL 651 589 O_____________ tcvitals SP092022 -17.0000 158.900 19 1001 -1 1002 90 35 9 118
2022032S15153 2022 6 SP EA NOT_NAMED 2022-02-03 09:00:00 NR -17.2774 159.398 PROVISIONAL 589 517 P_____________ SP092022 -17.2774 159.398 19 1000 -1 1001 87 35 12 120
2022032S15153 2022 6 SP MM NOT_NAMED 2022-02-03 12:00:00 NR -17.6000 160.000 PROVISIONAL 517 446 O_____________ tcvitals SP092022 -17.6000 160.000 19 1000 -1 1001 85 35 14 117
2022032S15153 2022 6 SP MM NOT_NAMED 2022-02-03 15:00:00 NR -17.9081 160.680 PROVISIONAL 438 360 P_____________ SP092022 -17.9081 160.680 19 1000 -1 1001 100 35 15 114
2022032S15153 2022 6 SP MM NOT_NAMED 2022-02-03 18:00:00 NR -18.2000 161.400 PROVISIONAL 360 O_____________ tcvitals SP092022 -18.2000 161.400 19 1000 -1 1002 115 35 15 113

デジタル台風データ・検索

IBTrACS Databaseについて

本データベースは、米国NOAAが公開する1842年以降の世界の熱帯低気圧のベストトラックデータアーカイブInternational Best Track Archive for Climate Stewardship (IBTrACS)を、ウェブで閲覧しやすい形式に変換したものです。

最終更新日:2022-05-26